sensor_id;sensor_type;location;lat;lon;timestamp;pressure;altitude;pressure_sealevel;temperature
78917;BMP280;68315;48.608;11.436;2023-05-23T00:01:32;96887.19;;;17.54
78917;BMP280;68315;48.608;11.436;2023-05-23T00:04:01;96888.34;;;17.50
78917;BMP280;68315;48.608;11.436;2023-05-23T00:06:27;96897.44;;;17.41
78917;BMP280;68315;48.608;11.436;2023-05-23T00:08:52;96898.63;;;17.38
78917;BMP280;68315;48.608;11.436;2023-05-23T00:11:17;96898.34;;;17.34
78917;BMP280;68315;48.608;11.436;2023-05-23T00:13:44;96892.19;;;17.26
78917;BMP280;68315;48.608;11.436;2023-05-23T00:16:10;96897.91;;;17.28
78917;BMP280;68315;48.608;11.436;2023-05-23T00:18:36;96894.69;;;17.22
78917;BMP280;68315;48.608;11.436;2023-05-23T00:21:01;96893.81;;;17.20
78917;BMP280;68315;48.608;11.436;2023-05-23T00:23:27;96892.06;;;17.15
78917;BMP280;68315;48.608;11.436;2023-05-23T00:25:54;96890.16;;;17.08
78917;BMP280;68315;48.608;11.436;2023-05-23T00:28:20;96889.13;;;17.03
78917;BMP280;68315;48.608;11.436;2023-05-23T00:30:46;96897.91;;;17.00
78917;BMP280;68315;48.608;11.436;2023-05-23T00:33:13;96894.09;;;16.95
78917;BMP280;68315;48.608;11.436;2023-05-23T00:35:39;96882.84;;;16.93
78917;BMP280;68315;48.608;11.436;2023-05-23T00:38:04;96892.75;;;16.96
78917;BMP280;68315;48.608;11.436;2023-05-23T00:40:31;96906.34;;;17.02
78917;BMP280;68315;48.608;11.436;2023-05-23T00:42:57;96895.84;;;17.10
78917;BMP280;68315;48.608;11.436;2023-05-23T00:45:22;96902.00;;;17.18
78917;BMP280;68315;48.608;11.436;2023-05-23T00:47:48;96904.19;;;17.19
78917;BMP280;68315;48.608;11.436;2023-05-23T00:50:14;96909.75;;;17.19
78917;BMP280;68315;48.608;11.436;2023-05-23T00:52:41;96914.28;;;17.15
78917;BMP280;68315;48.608;11.436;2023-05-23T00:55:07;96917.06;;;17.15
78917;BMP280;68315;48.608;11.436;2023-05-23T00:57:33;96921.59;;;17.20
78917;BMP280;68315;48.608;11.436;2023-05-23T01:00:00;96911.34;;;17.22
78917;BMP280;68315;48.608;11.436;2023-05-23T01:02:25;96917.19;;;17.26
78917;BMP280;68315;48.608;11.436;2023-05-23T01:04:52;96915.56;;;17.33
78917;BMP280;68315;48.608;11.436;2023-05-23T01:07:19;96921.25;;;17.35
78917;BMP280;68315;48.608;11.436;2023-05-23T01:09:45;96917.78;;;17.34
78917;BMP280;68315;48.608;11.436;2023-05-23T01:12:27;96928.00;;;17.32
78917;BMP280;68315;48.608;11.436;2023-05-23T01:14:59;96924.66;;;17.33
78917;BMP280;68315;48.608;11.436;2023-05-23T01:20:40;96926.53;;;17.31
78917;BMP280;68315;48.608;11.436;2023-05-23T01:23:28;96923.47;;;17.36
78917;BMP280;68315;48.608;11.436;2023-05-23T01:26:12;96934.44;;;17.34
78917;BMP280;68315;48.608;11.436;2023-05-23T01:28:46;96921.13;;;17.33
78917;BMP280;68315;48.608;11.436;2023-05-23T01:31:12;96929.31;;;17.31
78917;BMP280;68315;48.608;11.436;2023-05-23T01:33:39;96923.34;;;17.25
78917;BMP280;68315;48.608;11.436;2023-05-23T01:36:05;96927.84;;;17.20
78917;BMP280;68315;48.608;11.436;2023-05-23T01:38:31;96929.19;;;17.19
78917;BMP280;68315;48.608;11.436;2023-05-23T01:40:56;96932.38;;;17.16
78917;BMP280;68315;48.608;11.436;2023-05-23T01:43:23;96930.47;;;17.18
78917;BMP280;68315;48.608;11.436;2023-05-23T01:45:50;96925.06;;;17.11
78917;BMP280;68315;48.608;11.436;2023-05-23T01:48:16;96926.25;;;17.08
78917;BMP280;68315;48.608;11.436;2023-05-23T01:50:43;96927.72;;;17.09
78917;BMP280;68315;48.608;11.436;2023-05-23T01:53:15;96927.41;;;17.05
78917;BMP280;68315;48.608;11.436;2023-05-23T01:55:41;96930.59;;;17.01
78917;BMP280;68315;48.608;11.436;2023-05-23T01:58:07;96937.50;;;17.00
78917;BMP280;68315;48.608;11.436;2023-05-23T02:00:32;96928.84;;;16.96
78917;BMP280;68315;48.608;11.436;2023-05-23T02:02:58;96930.75;;;16.94
78917;BMP280;68315;48.608;11.436;2023-05-23T02:05:23;96934.28;;;16.94
78917;BMP280;68315;48.608;11.436;2023-05-23T02:07:49;96925.94;;;16.94
78917;BMP280;68315;48.608;11.436;2023-05-23T02:10:14;96934.69;;;16.91
78917;BMP280;68315;48.608;11.436;2023-05-23T02:12:39;96925.22;;;16.84
78917;BMP280;68315;48.608;11.436;2023-05-23T02:15:05;96931.75;;;16.79
78917;BMP280;68315;48.608;11.436;2023-05-23T02:17:31;96935.09;;;16.68
78917;BMP280;68315;48.608;11.436;2023-05-23T02:19:57;96929.22;;;16.55
78917;BMP280;68315;48.608;11.436;2023-05-23T02:22:22;96931.81;;;16.43
78917;BMP280;68315;48.608;11.436;2023-05-23T02:24:51;96934.38;;;16.31
78917;BMP280;68315;48.608;11.436;2023-05-23T02:27:17;96936.56;;;16.23
78917;BMP280;68315;48.608;11.436;2023-05-23T02:29:42;96937.41;;;16.16
78917;BMP280;68315;48.608;11.436;2023-05-23T02:32:08;96937.63;;;16.01
78917;BMP280;68315;48.608;11.436;2023-05-23T02:34:33;96939.88;;;15.86
78917;BMP280;68315;48.608;11.436;2023-05-23T02:36:58;96945.00;;;15.72
78917;BMP280;68315;48.608;11.436;2023-05-23T02:39:24;96956.59;;;15.61
78917;BMP280;68315;48.608;11.436;2023-05-23T02:41:49;96957.44;;;15.54
78917;BMP280;68315;48.608;11.436;2023-05-23T02:44:15;96961.91;;;15.50
78917;BMP280;68315;48.608;11.436;2023-05-23T02:46:40;96961.19;;;15.49
78917;BMP280;68315;48.608;11.436;2023-05-23T02:49:05;96965.41;;;15.50
78917;BMP280;68315;48.608;11.436;2023-05-23T02:51:31;96954.94;;;15.49
78917;BMP280;68315;48.608;11.436;2023-05-23T02:53:56;96963.38;;;15.51
78917;BMP280;68315;48.608;11.436;2023-05-23T02:56:22;96962.00;;;15.59
78917;BMP280;68315;48.608;11.436;2023-05-23T02:58:47;96959.94;;;15.60
78917;BMP280;68315;48.608;11.436;2023-05-23T03:01:12;96960.09;;;15.62
78917;BMP280;68315;48.608;11.436;2023-05-23T03:03:38;96951.41;;;15.65
78917;BMP280;68315;48.608;11.436;2023-05-23T03:06:04;96950.66;;;15.65
78917;BMP280;68315;48.608;11.436;2023-05-23T03:08:30;96946.59;;;15.66
78917;BMP280;68315;48.608;11.436;2023-05-23T03:10:55;96954.97;;;15.75
78917;BMP280;68315;48.608;11.436;2023-05-23T03:13:21;96950.16;;;15.76
78917;BMP280;68315;48.608;11.436;2023-05-23T03:15:46;96941.28;;;15.77
78917;BMP280;68315;48.608;11.436;2023-05-23T03:18:11;96949.25;;;15.73
78917;BMP280;68315;48.608;11.436;2023-05-23T03:20:37;96945.50;;;15.61
78917;BMP280;68315;48.608;11.436;2023-05-23T03:23:02;96941.72;;;15.57
78917;BMP280;68315;48.608;11.436;2023-05-23T03:25:27;96953.34;;;15.55
78917;BMP280;68315;48.608;11.436;2023-05-23T03:27:53;96947.66;;;15.53
78917;BMP280;68315;48.608;11.436;2023-05-23T03:30:19;96953.03;;;15.51
78917;BMP280;68315;48.608;11.436;2023-05-23T03:32:44;96957.84;;;15.51
78917;BMP280;68315;48.608;11.436;2023-05-23T03:35:10;96958.56;;;15.51
78917;BMP280;68315;48.608;11.436;2023-05-23T03:37:39;96961.66;;;15.55
78917;BMP280;68315;48.608;11.436;2023-05-23T03:40:05;96955.72;;;15.59
78917;BMP280;68315;48.608;11.436;2023-05-23T03:42:31;96962.56;;;15.58
78917;BMP280;68315;48.608;11.436;2023-05-23T03:44:56;96966.22;;;15.60
78917;BMP280;68315;48.608;11.436;2023-05-23T03:47:22;96962.88;;;15.62
78917;BMP280;68315;48.608;11.436;2023-05-23T03:49:48;96960.09;;;15.62
78917;BMP280;68315;48.608;11.436;2023-05-23T03:52:13;96971.94;;;15.62
78917;BMP280;68315;48.608;11.436;2023-05-23T03:54:39;96966.94;;;15.61
78917;BMP280;68315;48.608;11.436;2023-05-23T03:57:04;96976.00;;;15.61
78917;BMP280;68315;48.608;11.436;2023-05-23T03:59:29;96968.41;;;15.62
78917;BMP280;68315;48.608;11.436;2023-05-23T04:01:55;96977.06;;;15.66
78917;BMP280;68315;48.608;11.436;2023-05-23T04:04:22;96974.28;;;15.66
78917;BMP280;68315;48.608;11.436;2023-05-23T04:06:49;96968.91;;;15.68
78917;BMP280;68315;48.608;11.436;2023-05-23T04:09:14;96961.38;;;15.78
78917;BMP280;68315;48.608;11.436;2023-05-23T04:11:40;96968.13;;;15.84
78917;BMP280;68315;48.608;11.436;2023-05-23T04:14:05;96965.22;;;15.82
78917;BMP280;68315;48.608;11.436;2023-05-23T04:20:11;96973.28;;;15.88
78917;BMP280;68315;48.608;11.436;2023-05-23T04:22:37;96969.50;;;15.93
78917;BMP280;68315;48.608;11.436;2023-05-23T04:25:03;96965.72;;;15.98
78917;BMP280;68315;48.608;11.436;2023-05-23T04:27:28;96978.59;;;16.03
78917;BMP280;68315;48.608;11.436;2023-05-23T04:29:55;96975.78;;;16.20
78917;BMP280;68315;48.608;11.436;2023-05-23T04:32:27;96972.56;;;16.14
78917;BMP280;68315;48.608;11.436;2023-05-23T04:34:52;96978.09;;;16.14
78917;BMP280;68315;48.608;11.436;2023-05-23T04:37:18;96981.13;;;16.08
78917;BMP280;68315;48.608;11.436;2023-05-23T04:39:50;96985.97;;;16.08
78917;BMP280;68315;48.608;11.436;2023-05-23T04:42:15;96992.22;;;16.08
78917;BMP280;68315;48.608;11.436;2023-05-23T04:44:41;97001.59;;;16.13
78917;BMP280;68315;48.608;11.436;2023-05-23T04:47:07;97003.22;;;16.16
78917;BMP280;68315;48.608;11.436;2023-05-23T04:49:35;97010.09;;;16.24
78917;BMP280;68315;48.608;11.436;2023-05-23T04:52:00;97008.38;;;16.29
78917;BMP280;68315;48.608;11.436;2023-05-23T04:54:26;97016.91;;;16.40
78917;BMP280;68315;48.608;11.436;2023-05-23T04:56:51;97008.63;;;16.50
78917;BMP280;68315;48.608;11.436;2023-05-23T04:59:16;97009.09;;;16.56
78917;BMP280;68315;48.608;11.436;2023-05-23T05:01:41;97014.66;;;16.66
78917;BMP280;68315;48.608;11.436;2023-05-23T05:04:09;97015.56;;;16.68
78917;BMP280;68315;48.608;11.436;2023-05-23T05:06:35;97012.56;;;16.83
78917;BMP280;68315;48.608;11.436;2023-05-23T05:09:00;97014.91;;;16.87
78917;BMP280;68315;48.608;11.436;2023-05-23T05:11:25;97013.47;;;16.95
78917;BMP280;68315;48.608;11.436;2023-05-23T05:13:51;97015.09;;;17.08
78917;BMP280;68315;48.608;11.436;2023-05-23T05:16:16;97015.41;;;17.12
78917;BMP280;68315;48.608;11.436;2023-05-23T05:18:42;97021.56;;;17.20
78917;BMP280;68315;48.608;11.436;2023-05-23T05:21:07;97018.34;;;17.33
78917;BMP280;68315;48.608;11.436;2023-05-23T05:23:35;97027.88;;;17.39
78917;BMP280;68315;48.608;11.436;2023-05-23T05:26:01;97018.81;;;17.48
78917;BMP280;68315;48.608;11.436;2023-05-23T05:28:27;97023.47;;;17.56
78917;BMP280;68315;48.608;11.436;2023-05-23T05:30:53;97019.53;;;17.59
78917;BMP280;68315;48.608;11.436;2023-05-23T05:33:21;97018.81;;;17.68
78917;BMP280;68315;48.608;11.436;2023-05-23T05:35:49;97016.59;;;17.76
78917;BMP280;68315;48.608;11.436;2023-05-23T05:38:21;97017.31;;;17.86
78917;BMP280;68315;48.608;11.436;2023-05-23T05:40:46;97022.56;;;18.01
78917;BMP280;68315;48.608;11.436;2023-05-23T05:43:11;97025.34;;;18.10
78917;BMP280;68315;48.608;11.436;2023-05-23T05:45:40;97031.00;;;18.22
78917;BMP280;68315;48.608;11.436;2023-05-23T05:48:05;97031.41;;;18.37
78917;BMP280;68315;48.608;11.436;2023-05-23T05:50:35;97039.72;;;18.47
78917;BMP280;68315;48.608;11.436;2023-05-23T05:53:05;97044.94;;;18.62
78917;BMP280;68315;48.608;11.436;2023-05-23T05:55:33;97034.81;;;18.67
78917;BMP280;68315;48.608;11.436;2023-05-23T05:57:58;97031.84;;;18.74
78917;BMP280;68315;48.608;11.436;2023-05-23T06:00:31;97037.19;;;18.82
78917;BMP280;68315;48.608;11.436;2023-05-23T06:03:23;97043.41;;;18.80
78917;BMP280;68315;48.608;11.436;2023-05-23T06:05:49;97048.03;;;18.87
78917;BMP280;68315;48.608;11.436;2023-05-23T06:08:21;97051.75;;;19.01
78917;BMP280;68315;48.608;11.436;2023-05-23T06:10:47;97058.16;;;19.13
78917;BMP280;68315;48.608;11.436;2023-05-23T06:13:18;97064.38;;;19.23
78917;BMP280;68315;48.608;11.436;2023-05-23T06:15:43;97061.66;;;19.35
78917;BMP280;68315;48.608;11.436;2023-05-23T06:18:25;97061.09;;;19.36
78917;BMP280;68315;48.608;11.436;2023-05-23T06:20:50;97055.91;;;19.42
78917;BMP280;68315;48.608;11.436;2023-05-23T06:23:16;97066.38;;;19.53
78917;BMP280;68315;48.608;11.436;2023-05-23T06:25:41;97080.97;;;19.63
78917;BMP280;68315;48.608;11.436;2023-05-23T06:28:22;97067.84;;;19.87
78917;BMP280;68315;48.608;11.436;2023-05-23T06:30:48;97069.97;;;19.98
78917;BMP280;68315;48.608;11.436;2023-05-23T06:33:22;97069.84;;;19.96
78917;BMP280;68315;48.608;11.436;2023-05-23T06:35:47;97078.16;;;19.85
78917;BMP280;68315;48.608;11.436;2023-05-23T06:38:12;97072.63;;;19.96
78917;BMP280;68315;48.608;11.436;2023-05-23T06:40:46;97081.63;;;20.06
78917;BMP280;68315;48.608;11.436;2023-05-23T06:43:12;97082.41;;;20.30
78917;BMP280;68315;48.608;11.436;2023-05-23T06:45:39;97090.44;;;20.35
78917;BMP280;68315;48.608;11.436;2023-05-23T06:48:10;97078.94;;;20.08
78917;BMP280;68315;48.608;11.436;2023-05-23T06:50:37;97083.00;;;19.84
78917;BMP280;68315;48.608;11.436;2023-05-23T06:53:05;97081.09;;;19.65
78917;BMP280;68315;48.608;11.436;2023-05-23T06:55:31;97072.72;;;19.65
78917;BMP280;68315;48.608;11.436;2023-05-23T06:58:04;97083.16;;;19.65
78917;BMP280;68315;48.608;11.436;2023-05-23T07:00:30;97085.34;;;19.66
78917;BMP280;68315;48.608;11.436;2023-05-23T07:02:56;97085.44;;;19.68
78917;BMP280;68315;48.608;11.436;2023-05-23T07:05:26;97086.56;;;19.63
78917;BMP280;68315;48.608;11.436;2023-05-23T07:07:51;97084.69;;;19.56
78917;BMP280;68315;48.608;11.436;2023-05-23T07:10:20;97085.28;;;19.55
78917;BMP280;68315;48.608;11.436;2023-05-23T07:12:51;97085.16;;;19.53
78917;BMP280;68315;48.608;11.436;2023-05-23T07:15:19;97089.63;;;19.46
78917;BMP280;68315;48.608;11.436;2023-05-23T07:17:44;97084.22;;;19.39
78917;BMP280;68315;48.608;11.436;2023-05-23T07:20:12;97082.59;;;19.45
78917;BMP280;68315;48.608;11.436;2023-05-23T07:22:37;97090.88;;;19.55
78917;BMP280;68315;48.608;11.436;2023-05-23T07:25:03;97084.56;;;19.54
78917;BMP280;68315;48.608;11.436;2023-05-23T07:27:29;97085.69;;;19.61
78917;BMP280;68315;48.608;11.436;2023-05-23T07:29:54;97074.25;;;19.57
78917;BMP280;68315;48.608;11.436;2023-05-23T07:32:21;97086.75;;;19.56
78917;BMP280;68315;48.608;11.436;2023-05-23T07:34:46;97090.28;;;19.56
78917;BMP280;68315;48.608;11.436;2023-05-23T07:37:12;97088.34;;;19.59
78917;BMP280;68315;48.608;11.436;2023-05-23T07:39:37;97084.69;;;19.56
78917;BMP280;68315;48.608;11.436;2023-05-23T07:42:02;97088.59;;;19.63
78917;BMP280;68315;48.608;11.436;2023-05-23T07:44:28;97093.66;;;19.76
78917;BMP280;68315;48.608;11.436;2023-05-23T07:46:53;97098.88;;;19.81
78917;BMP280;68315;48.608;11.436;2023-05-23T07:49:22;97094.06;;;19.94
78917;BMP280;68315;48.608;11.436;2023-05-23T07:51:57;97096.84;;;19.94
78917;BMP280;68315;48.608;11.436;2023-05-23T07:54:22;97092.28;;;19.98
78917;BMP280;68315;48.608;11.436;2023-05-23T07:56:47;97091.81;;;20.02
78917;BMP280;68315;48.608;11.436;2023-05-23T07:59:13;97092.31;;;20.10
78917;BMP280;68315;48.608;11.436;2023-05-23T08:01:38;97096.91;;;20.05
78917;BMP280;68315;48.608;11.436;2023-05-23T08:04:04;97091.19;;;20.03
78917;BMP280;68315;48.608;11.436;2023-05-23T08:06:32;97090.59;;;20.05
78917;BMP280;68315;48.608;11.436;2023-05-23T08:09:02;97096.81;;;20.15
78917;BMP280;68315;48.608;11.436;2023-05-23T08:11:27;97092.44;;;20.12
78917;BMP280;68315;48.608;11.436;2023-05-23T08:13:56;97098.38;;;20.06
78917;BMP280;68315;48.608;11.436;2023-05-23T08:16:24;97097.25;;;20.11
78917;BMP280;68315;48.608;11.436;2023-05-23T08:18:49;97095.16;;;20.33
78917;BMP280;68315;48.608;11.436;2023-05-23T08:21:15;97090.56;;;20.49
78917;BMP280;68315;48.608;11.436;2023-05-23T08:23:43;97103.00;;;20.80
78917;BMP280;68315;48.608;11.436;2023-05-23T08:26:09;97095.31;;;21.04
78917;BMP280;68315;48.608;11.436;2023-05-23T08:28:34;97096.78;;;21.17
78917;BMP280;68315;48.608;11.436;2023-05-23T08:31:00;97095.28;;;21.16
78917;BMP280;68315;48.608;11.436;2023-05-23T08:33:28;97097.00;;;21.09
78917;BMP280;68315;48.608;11.436;2023-05-23T08:35:53;97101.72;;;21.18
78917;BMP280;68315;48.608;11.436;2023-05-23T08:38:19;97110.09;;;21.41
78917;BMP280;68315;48.608;11.436;2023-05-23T08:40:52;97102.13;;;21.61
78917;BMP280;68315;48.608;11.436;2023-05-23T08:43:27;97108.97;;;21.83
78917;BMP280;68315;48.608;11.436;2023-05-23T08:45:53;97111.03;;;22.07
78917;BMP280;68315;48.608;11.436;2023-05-23T08:48:28;97112.88;;;22.28
78917;BMP280;68315;48.608;11.436;2023-05-23T08:50:53;97110.25;;;22.18
78917;BMP280;68315;48.608;11.436;2023-05-23T08:53:20;97110.88;;;22.17
78917;BMP280;68315;48.608;11.436;2023-05-23T08:55:48;97108.88;;;22.19
78917;BMP280;68315;48.608;11.436;2023-05-23T08:58:16;97118.38;;;22.01
78917;BMP280;68315;48.608;11.436;2023-05-23T09:00:44;97111.09;;;21.96
78917;BMP280;68315;48.608;11.436;2023-05-23T09:03:10;97103.44;;;21.96
78917;BMP280;68315;48.608;11.436;2023-05-23T09:05:36;97108.09;;;21.92
78917;BMP280;68315;48.608;11.436;2023-05-23T09:08:01;97112.50;;;21.83
78917;BMP280;68315;48.608;11.436;2023-05-23T09:10:27;97115.44;;;21.74
78917;BMP280;68315;48.608;11.436;2023-05-23T09:12:54;97116.22;;;21.63
78917;BMP280;68315;48.608;11.436;2023-05-23T09:15:19;97121.25;;;21.53
78917;BMP280;68315;48.608;11.436;2023-05-23T09:17:46;97118.03;;;21.58
78917;BMP280;68315;48.608;11.436;2023-05-23T09:20:13;97113.50;;;21.76
78917;BMP280;68315;48.608;11.436;2023-05-23T09:22:39;97129.50;;;21.87
78917;BMP280;68315;48.608;11.436;2023-05-23T09:25:05;97125.69;;;21.94
78917;BMP280;68315;48.608;11.436;2023-05-23T09:27:30;97120.38;;;22.12
78917;BMP280;68315;48.608;11.436;2023-05-23T09:29:56;97115.84;;;22.18
78917;BMP280;68315;48.608;11.436;2023-05-23T09:32:21;97117.59;;;22.12
78917;BMP280;68315;48.608;11.436;2023-05-23T09:34:59;97119.84;;;22.15
78917;BMP280;68315;48.608;11.436;2023-05-23T09:37:33;97112.56;;;22.35
78917;BMP280;68315;48.608;11.436;2023-05-23T09:39:59;97126.00;;;22.50
78917;BMP280;68315;48.608;11.436;2023-05-23T09:42:45;97122.53;;;22.38
78917;BMP280;68315;48.608;11.436;2023-05-23T09:45:11;97122.34;;;22.09
78917;BMP280;68315;48.608;11.436;2023-05-23T09:47:37;97125.22;;;21.98
78917;BMP280;68315;48.608;11.436;2023-05-23T09:50:03;97127.88;;;21.96
78917;BMP280;68315;48.608;11.436;2023-05-23T09:52:38;97126.66;;;21.99
78917;BMP280;68315;48.608;11.436;2023-05-23T09:55:06;97125.84;;;22.10
78917;BMP280;68315;48.608;11.436;2023-05-23T09:57:37;97130.84;;;22.50
78917;BMP280;68315;48.608;11.436;2023-05-23T10:00:08;97119.00;;;22.90
78917;BMP280;68315;48.608;11.436;2023-05-23T10:03:09;97124.69;;;23.06
78917;BMP280;68315;48.608;11.436;2023-05-23T10:06:43;97122.50;;;22.91
78917;BMP280;68315;48.608;11.436;2023-05-23T10:09:12;97129.97;;;22.86
78917;BMP280;68315;48.608;11.436;2023-05-23T10:15:06;97128.13;;;23.04
78917;BMP280;68315;48.608;11.436;2023-05-23T10:18:00;97133.75;;;23.04
78917;BMP280;68315;48.608;11.436;2023-05-23T10:20:30;97128.34;;;23.22
78917;BMP280;68315;48.608;11.436;2023-05-23T10:23:07;97125.28;;;23.31
78917;BMP280;68315;48.608;11.436;2023-05-23T10:25:36;97125.78;;;23.28
78917;BMP280;68315;48.608;11.436;2023-05-23T10:28:02;97123.13;;;23.30
78917;BMP280;68315;48.608;11.436;2023-05-23T10:30:35;97124.13;;;23.36
78917;BMP280;68315;48.608;11.436;2023-05-23T10:33:07;97127.81;;;23.68
78917;BMP280;68315;48.608;11.436;2023-05-23T10:38:26;97129.00;;;23.78
78917;BMP280;68315;48.608;11.436;2023-05-23T10:41:15;97122.13;;;23.81
78917;BMP280;68315;48.608;11.436;2023-05-23T10:46:14;97115.34;;;24.16
78917;BMP280;68315;48.608;11.436;2023-05-23T10:48:41;97125.28;;;24.48
78917;BMP280;68315;48.608;11.436;2023-05-23T10:51:11;97115.91;;;24.43
78917;BMP280;68315;48.608;11.436;2023-05-23T10:53:41;97115.84;;;24.26
78917;BMP280;68315;48.608;11.436;2023-05-23T10:56:23;97116.34;;;24.38
78917;BMP280;68315;48.608;11.436;2023-05-23T10:58:55;97109.53;;;24.89
78917;BMP280;68315;48.608;11.436;2023-05-23T11:01:34;97107.66;;;25.44
78917;BMP280;68315;48.608;11.436;2023-05-23T11:04:23;97113.34;;;25.64
78917;BMP280;68315;48.608;11.436;2023-05-23T11:06:49;97103.94;;;25.40
78917;BMP280;68315;48.608;11.436;2023-05-23T11:09:20;97118.38;;;24.99
78917;BMP280;68315;48.608;11.436;2023-05-23T11:11:53;97124.53;;;24.78
78917;BMP280;68315;48.608;11.436;2023-05-23T11:17:15;97120.81;;;24.58
78917;BMP280;68315;48.608;11.436;2023-05-23T11:20:01;97113.69;;;25.04
78917;BMP280;68315;48.608;11.436;2023-05-23T11:22:30;97123.56;;;25.05
78917;BMP280;68315;48.608;11.436;2023-05-23T11:24:57;97118.13;;;24.93
78917;BMP280;68315;48.608;11.436;2023-05-23T11:27:36;97111.75;;;24.75
78917;BMP280;68315;48.608;11.436;2023-05-23T11:32:30;97107.25;;;25.34
78917;BMP280;68315;48.608;11.436;2023-05-23T11:35:00;97106.03;;;25.92
78917;BMP280;68315;48.608;11.436;2023-05-23T11:37:26;97100.75;;;26.39
78917;BMP280;68315;48.608;11.436;2023-05-23T11:39:52;97099.28;;;26.75
78917;BMP280;68315;48.608;11.436;2023-05-23T11:42:21;97097.44;;;27.03
78917;BMP280;68315;48.608;11.436;2023-05-23T11:44:50;97086.84;;;26.63
78917;BMP280;68315;48.608;11.436;2023-05-23T11:47:19;97088.34;;;26.46
78917;BMP280;68315;48.608;11.436;2023-05-23T11:49:48;97103.19;;;26.10
78917;BMP280;68315;48.608;11.436;2023-05-23T11:52:19;97093.03;;;26.20
78917;BMP280;68315;48.608;11.436;2023-05-23T11:54:57;97092.81;;;26.34
78917;BMP280;68315;48.608;11.436;2023-05-23T11:57:55;97087.16;;;26.92
78917;BMP280;68315;48.608;11.436;2023-05-23T12:00:20;97087.09;;;27.31
78917;BMP280;68315;48.608;11.436;2023-05-23T12:02:48;97078.78;;;27.37
78917;BMP280;68315;48.608;11.436;2023-05-23T12:05:16;97085.84;;;26.95
78917;BMP280;68315;48.608;11.436;2023-05-23T12:07:47;97093.44;;;26.69
78917;BMP280;68315;48.608;11.436;2023-05-23T12:10:14;97085.88;;;26.76
78917;BMP280;68315;48.608;11.436;2023-05-23T12:12:49;97099.63;;;26.66
78917;BMP280;68315;48.608;11.436;2023-05-23T12:15:15;97091.97;;;26.68
78917;BMP280;68315;48.608;11.436;2023-05-23T12:17:44;97089.19;;;26.70
78917;BMP280;68315;48.608;11.436;2023-05-23T12:20:11;97099.84;;;26.91
78917;BMP280;68315;48.608;11.436;2023-05-23T12:22:42;97081.94;;;27.26
78917;BMP280;68315;48.608;11.436;2023-05-23T12:25:08;97090.81;;;27.16
78917;BMP280;68315;48.608;11.436;2023-05-23T12:27:39;97091.38;;;27.34
78917;BMP280;68315;48.608;11.436;2023-05-23T12:30:15;97083.25;;;27.44
78917;BMP280;68315;48.608;11.436;2023-05-23T12:32:42;97095.56;;;27.31
78917;BMP280;68315;48.608;11.436;2023-05-23T12:35:11;97092.13;;;27.35
78917;BMP280;68315;48.608;11.436;2023-05-23T12:37:45;97097.44;;;27.46
78917;BMP280;68315;48.608;11.436;2023-05-23T12:40:15;97097.44;;;27.68
78917;BMP280;68315;48.608;11.436;2023-05-23T12:45:13;97092.63;;;27.51
78917;BMP280;68315;48.608;11.436;2023-05-23T12:47:41;97094.00;;;27.07
78917;BMP280;68315;48.608;11.436;2023-05-23T12:50:07;97096.13;;;27.28
78917;BMP280;68315;48.608;11.436;2023-05-23T12:52:32;97106.88;;;27.55
78917;BMP280;68315;48.608;11.436;2023-05-23T12:54:57;97105.56;;;27.58
78917;BMP280;68315;48.608;11.436;2023-05-23T12:57:23;97104.78;;;27.12
78917;BMP280;68315;48.608;11.436;2023-05-23T12:59:48;97111.19;;;26.93
78917;BMP280;68315;48.608;11.436;2023-05-23T13:02:13;97103.94;;;26.88
78917;BMP280;68315;48.608;11.436;2023-05-23T13:04:39;97120.03;;;26.64
78917;BMP280;68315;48.608;11.436;2023-05-23T13:07:04;97117.22;;;26.64
78917;BMP280;68315;48.608;11.436;2023-05-23T13:09:33;97115.53;;;26.77
78917;BMP280;68315;48.608;11.436;2023-05-23T13:11:58;97108.53;;;26.58
78917;BMP280;68315;48.608;11.436;2023-05-23T13:14:24;97119.72;;;26.76
78917;BMP280;68315;48.608;11.436;2023-05-23T13:16:50;97112.69;;;26.96
78917;BMP280;68315;48.608;11.436;2023-05-23T13:19:16;97117.78;;;27.21
78917;BMP280;68315;48.608;11.436;2023-05-23T13:21:41;97123.38;;;27.41
78917;BMP280;68315;48.608;11.436;2023-05-23T13:24:09;97124.44;;;27.32
78917;BMP280;68315;48.608;11.436;2023-05-23T13:26:35;97116.25;;;27.18
78917;BMP280;68315;48.608;11.436;2023-05-23T13:29:00;97117.38;;;27.09
78917;BMP280;68315;48.608;11.436;2023-05-23T13:31:26;97126.13;;;27.39
78917;BMP280;68315;48.608;11.436;2023-05-23T13:33:56;97121.88;;;27.59
78917;BMP280;68315;48.608;11.436;2023-05-23T13:36:22;97123.28;;;27.39
78917;BMP280;68315;48.608;11.436;2023-05-23T13:38:47;97125.75;;;27.29
78917;BMP280;68315;48.608;11.436;2023-05-23T13:41:12;97119.44;;;27.50
78917;BMP280;68315;48.608;11.436;2023-05-23T13:43:38;97121.25;;;27.63
78917;BMP280;68315;48.608;11.436;2023-05-23T13:46:03;97120.59;;;27.64
78917;BMP280;68315;48.608;11.436;2023-05-23T13:48:29;97123.00;;;27.74
78917;BMP280;68315;48.608;11.436;2023-05-23T13:50:54;97120.38;;;27.80
78917;BMP280;68315;48.608;11.436;2023-05-23T13:53:20;97124.94;;;27.46
78917;BMP280;68315;48.608;11.436;2023-05-23T13:55:48;97129.59;;;27.37
78917;BMP280;68315;48.608;11.436;2023-05-23T13:58:13;97126.06;;;27.37
78917;BMP280;68315;48.608;11.436;2023-05-23T14:00:39;97133.81;;;27.36
78917;BMP280;68315;48.608;11.436;2023-05-23T14:03:14;97118.63;;;27.26
78917;BMP280;68315;48.608;11.436;2023-05-23T14:05:39;97120.63;;;27.02
78917;BMP280;68315;48.608;11.436;2023-05-23T14:08:05;97124.22;;;27.04
78917;BMP280;68315;48.608;11.436;2023-05-23T14:10:30;97126.59;;;26.90
78917;BMP280;68315;48.608;11.436;2023-05-23T14:12:57;97112.69;;;26.38
78917;BMP280;68315;48.608;11.436;2023-05-23T14:15:22;97120.88;;;26.30
78917;BMP280;68315;48.608;11.436;2023-05-23T14:17:48;97113.44;;;26.58
78917;BMP280;68315;48.608;11.436;2023-05-23T14:20:13;97118.69;;;26.48
78917;BMP280;68315;48.608;11.436;2023-05-23T14:22:38;97113.84;;;26.31
78917;BMP280;68315;48.608;11.436;2023-05-23T14:25:04;97110.06;;;26.05